createdAt,value
2023-04-27T05:03:29.082Z,500.00
2023-04-27T05:04:30.070Z,500.00
2023-04-27T05:05:29.889Z,500.00
2023-04-27T05:06:29.876Z,500.00
2023-04-27T05:07:29.875Z,500.00
2023-04-27T05:08:28.887Z,500.00
2023-04-27T05:09:28.865Z,400.00
2023-04-27T05:10:28.865Z,400.00
2023-04-27T05:11:29.857Z,400.00
2023-04-27T05:12:28.876Z,400.00
2023-04-27T05:13:28.858Z,400.00
2023-04-27T05:14:28.853Z,400.00
2023-04-27T05:15:29.832Z,400.00
2023-04-27T05:16:29.838Z,400.00
2023-04-27T05:17:28.859Z,400.00
2023-04-27T05:18:29.814Z,400.00
2023-04-27T05:19:29.838Z,400.00
2023-04-27T05:20:28.792Z,400.00
2023-04-27T05:21:28.816Z,400.00
2023-04-27T05:22:29.787Z,400.00
2023-04-27T05:23:29.779Z,400.00
2023-04-27T05:24:28.792Z,400.00
2023-04-27T05:25:28.825Z,400.00
2023-04-27T05:26:29.881Z,400.00
2023-04-27T05:27:28.920Z,400.00
2023-04-27T05:28:29.973Z,400.00
2023-04-27T05:29:28.977Z,400.00
2023-04-27T05:30:30.038Z,425.00
2023-04-27T05:31:30.107Z,477.00
2023-04-27T05:32:30.845Z,503.00
2023-04-27T05:33:29.140Z,504.00
2023-04-27T05:34:29.198Z,500.00
2023-04-27T05:35:30.259Z,500.00
2023-04-27T05:36:29.296Z,497.00
2023-04-27T05:37:30.352Z,504.00
2023-04-27T05:38:30.393Z,503.00
2023-04-27T05:39:29.422Z,508.00
2023-04-27T05:40:30.444Z,507.00
2023-04-27T05:41:30.462Z,501.00
2023-04-27T05:42:29.463Z,500.00
2023-04-27T05:43:30.475Z,500.00
2023-04-27T05:44:29.497Z,509.00
2023-04-27T05:45:30.525Z,518.00
2023-04-27T05:46:29.565Z,528.00
2023-04-27T05:47:29.556Z,531.00
2023-04-27T05:48:30.574Z,543.00
2023-04-27T05:49:30.606Z,549.00
2023-04-27T05:50:30.635Z,499.00
2023-04-27T05:51:30.703Z,501.00
2023-04-27T05:52:30.721Z,514.00
2023-04-27T05:53:30.734Z,500.00
2023-04-27T05:54:29.791Z,500.00
2023-04-27T05:55:30.787Z,500.00
2023-04-27T05:56:30.809Z,500.00
2023-04-27T05:57:29.822Z,505.00
2023-04-27T05:58:30.812Z,514.00
2023-04-27T05:59:30.849Z,511.00
2023-04-27T06:00:30.854Z,502.00
2023-04-27T06:01:30.902Z,505.00
2023-04-27T06:02:30.060Z,501.00
2023-04-27T06:03:30.527Z,501.00
2023-04-27T06:04:31.119Z,500.00
2023-04-27T06:05:30.070Z,502.00
2023-04-27T06:06:31.068Z,501.00
2023-04-27T06:07:30.132Z,500.00
2023-04-27T06:08:31.186Z,501.00
2023-04-27T06:09:31.180Z,506.00
2023-04-27T06:10:31.213Z,504.00
2023-04-27T06:11:30.225Z,506.00
2023-04-27T06:12:31.264Z,507.00
2023-04-27T06:13:30.281Z,502.00
2023-04-27T06:14:31.307Z,504.00
2023-04-27T06:15:31.354Z,508.00
2023-04-27T06:16:31.530Z,508.00
2023-04-27T06:17:31.416Z,532.00
2023-04-27T06:18:31.407Z,543.00
2023-04-27T06:19:31.445Z,550.00
2023-04-27T06:20:30.510Z,545.00
2023-04-27T06:21:31.518Z,549.00
2023-04-27T06:22:30.553Z,552.00
2023-04-27T06:23:30.632Z,557.00
2023-04-27T06:24:31.562Z,560.00
2023-04-27T06:25:30.593Z,564.00
2023-04-27T06:26:31.623Z,567.00
2023-04-27T06:27:31.660Z,571.00
2023-04-27T06:28:31.744Z,576.00
2023-04-27T06:29:31.754Z,577.00
2023-04-27T06:30:31.786Z,572.00
2023-04-27T06:31:31.854Z,582.00
2023-04-27T06:32:32.021Z,583.00
2023-04-27T06:33:31.916Z,586.00
2023-04-27T06:34:31.917Z,592.00
2023-04-27T06:35:31.967Z,583.00
2023-04-27T06:36:31.000Z,588.00
2023-04-27T06:37:32.055Z,596.00
2023-04-27T06:38:32.113Z,592.00
2023-04-27T06:39:31.147Z,591.00
2023-04-27T06:40:32.158Z,604.00
2023-04-27T06:41:31.197Z,595.00
2023-04-27T06:42:32.243Z,597.00
2023-04-27T06:43:31.285Z,591.00
2023-04-27T06:44:32.320Z,608.00
2023-04-27T06:45:31.376Z,606.00
2023-04-27T06:46:32.534Z,605.00
2023-04-27T06:47:32.460Z,607.00
2023-04-27T06:48:32.499Z,608.00
2023-04-27T06:49:31.534Z,609.00
2023-04-27T06:50:31.744Z,605.00
2023-04-27T06:51:32.604Z,614.00
2023-04-27T06:52:31.640Z,608.00
2023-04-27T06:53:32.865Z,614.00
2023-04-27T06:54:31.744Z,618.00
2023-04-27T06:55:32.812Z,624.00
2023-04-27T06:56:32.856Z,621.00
2023-04-27T06:57:32.878Z,625.00
2023-04-27T06:58:32.923Z,651.00
2023-04-27T06:59:32.972Z,653.00
2023-04-27T07:00:32.034Z,640.00
2023-04-27T07:01:33.103Z,653.00
2023-04-27T07:02:33.142Z,653.00
2023-04-27T07:03:33.259Z,661.00
2023-04-27T07:04:33.160Z,664.00
2023-04-27T07:05:32.126Z,684.00
2023-04-27T07:06:32.156Z,680.00
2023-04-27T07:07:33.172Z,703.00
2023-04-27T07:08:33.196Z,710.00
2023-04-27T07:09:33.584Z,746.00
2023-04-27T07:10:33.275Z,784.00
2023-04-27T07:11:33.276Z,772.00
2023-04-27T07:12:33.288Z,810.00
2023-04-27T07:13:32.324Z,801.00
2023-04-27T07:14:33.377Z,822.00
2023-04-27T07:15:32.404Z,822.00
2023-04-27T07:16:33.526Z,829.00
2023-04-27T07:17:33.528Z,838.00
2023-04-27T07:18:33.561Z,834.00
2023-04-27T07:19:32.594Z,863.00
2023-04-27T07:20:33.606Z,875.00
2023-04-27T07:21:33.661Z,861.00
2023-04-27T07:22:33.710Z,888.00
2023-04-27T07:23:33.757Z,880.00
2023-04-27T07:24:33.788Z,898.00
2023-04-27T07:25:34.022Z,869.00
2023-04-27T07:26:33.875Z,890.00
2023-04-27T07:27:32.927Z,908.00
2023-04-27T07:28:33.934Z,912.00
2023-04-27T07:29:33.348Z,916.00
2023-04-27T07:30:33.989Z,938.00
2023-04-27T07:31:34.054Z,949.00
2023-04-27T07:32:34.117Z,942.00
2023-04-27T07:33:33.095Z,945.00
2023-04-27T07:34:49.127Z,959.00
2023-04-27T07:35:34.133Z,961.00
2023-04-27T07:36:33.124Z,968.00
2023-04-27T07:37:33.114Z,966.00
2023-04-27T07:38:33.154Z,973.00
2023-04-27T07:39:34.131Z,983.00
2023-04-27T07:40:34.081Z,978.00
2023-04-27T07:41:34.081Z,995.00
2023-04-27T07:42:33.077Z,998.00
2023-04-27T07:43:34.095Z,1002.00
2023-04-27T07:44:34.080Z,1013.00
2023-04-27T07:45:33.234Z,1015.00
2023-04-27T07:46:33.049Z,1017.00
2023-04-27T07:47:34.055Z,1006.00
2023-04-27T07:48:34.044Z,1016.00
2023-04-27T07:49:33.410Z,1018.00
2023-04-27T07:50:34.023Z,1028.00
2023-04-27T07:51:34.022Z,1045.00
2023-04-27T07:52:33.010Z,1015.00
2023-04-27T07:53:33.986Z,1060.00
2023-04-27T07:54:33.010Z,957.00
2023-04-27T07:55:32.982Z,952.00
2023-04-27T07:56:33.960Z,813.00
2023-04-27T07:57:33.961Z,689.00
2023-04-27T07:58:32.959Z,649.00
2023-04-27T07:59:34.062Z,626.00
2023-04-27T08:00:33.957Z,626.00
2023-04-27T08:01:32.992Z,607.00
2023-04-27T08:02:34.066Z,593.00
2023-04-27T08:03:34.245Z,579.00
2023-04-27T08:04:34.190Z,582.00
2023-04-27T08:05:34.357Z,561.00
2023-04-27T08:06:33.362Z,555.00
2023-04-27T08:07:35.903Z,560.00
2023-04-27T08:08:33.874Z,559.00
2023-04-27T08:09:32.873Z,546.00
2023-04-27T08:10:33.877Z,528.00
2023-04-27T08:11:33.950Z,535.00
2023-04-27T08:12:33.970Z,546.00
2023-04-27T08:13:33.039Z,566.00
2023-04-27T08:14:34.625Z,573.00
2023-04-27T08:15:34.234Z,571.00
2023-04-27T08:16:34.201Z,591.00
2023-04-27T08:17:33.252Z,602.00
2023-04-27T08:18:34.246Z,601.00
2023-04-27T08:19:34.270Z,604.00
2023-04-27T08:20:34.279Z,615.00
2023-04-27T08:21:34.300Z,634.00
2023-04-27T08:22:33.321Z,644.00
2023-04-27T08:23:34.384Z,645.00
2023-04-27T08:24:34.413Z,652.00
2023-04-27T08:25:34.454Z,661.00
2023-04-27T08:26:33.610Z,677.00
2023-04-27T08:27:34.547Z,689.00
2023-04-27T08:28:33.593Z,729.00
2023-04-27T08:29:34.962Z,746.00
2023-04-27T08:30:34.662Z,765.00
2023-04-27T08:31:33.742Z,775.00
2023-04-27T08:32:34.771Z,792.00
2023-04-27T08:33:34.705Z,813.00
2023-04-27T08:34:34.733Z,825.00
2023-04-27T08:35:33.747Z,833.00
2023-04-27T08:36:33.752Z,847.00
2023-04-27T08:37:34.757Z,858.00
2023-04-27T08:38:34.776Z,859.00
2023-04-27T08:39:34.788Z,880.00
2023-04-27T08:40:34.784Z,851.00
2023-04-27T08:41:33.816Z,961.00
2023-04-27T08:42:34.827Z,934.00
2023-04-27T08:43:33.842Z,944.00
2023-04-27T08:44:33.887Z,967.00
2023-04-27T08:45:33.917Z,1008.00
2023-04-27T08:46:34.045Z,1012.00
2023-04-27T08:47:42.411Z,1032.00
2023-04-27T08:48:34.991Z,1033.00
2023-04-27T08:49:33.989Z,1039.00
2023-04-27T08:50:35.004Z,1042.00
2023-04-27T08:51:34.993Z,1063.00
2023-04-27T08:52:33.966Z,1090.00
2023-04-27T08:53:34.941Z,1094.00
2023-04-27T08:54:33.974Z,1096.00
2023-04-27T08:55:34.933Z,1119.00
2023-04-27T08:56:36.975Z,1117.00
2023-04-27T08:57:33.950Z,1134.00
2023-04-27T08:58:34.933Z,1131.00
2023-04-27T08:59:34.919Z,1165.00
2023-04-27T09:00:33.911Z,1149.00
2023-04-27T09:01:34.922Z,1151.00
2023-04-27T09:02:35.125Z,1161.00
2023-04-27T09:03:35.016Z,1168.00
2023-04-27T09:04:34.984Z,1156.00
2023-04-27T09:05:34.903Z,1155.00
2023-04-27T09:06:33.890Z,1161.00
2023-04-27T09:07:34.866Z,1160.00
2023-04-27T09:08:33.851Z,1181.00
2023-04-27T09:09:34.893Z,1159.00
2023-04-27T09:10:34.849Z,1170.00
2023-04-27T09:11:33.893Z,1182.00
2023-04-27T09:12:34.827Z,1188.00
2023-04-27T09:13:34.822Z,1172.00
2023-04-27T09:14:34.812Z,1167.00
2023-04-27T09:15:34.794Z,1198.00
2023-04-27T09:16:34.856Z,1195.00
2023-04-27T09:17:34.799Z,1193.00
2023-04-27T09:18:34.763Z,1220.00
2023-04-27T09:19:34.790Z,1245.00
2023-04-27T09:20:34.760Z,1222.00
2023-04-27T09:21:34.776Z,1226.00
2023-04-27T09:22:33.744Z,1242.00
2023-04-27T09:23:34.775Z,1232.00
2023-04-27T09:24:34.738Z,1232.00
2023-04-27T09:25:34.722Z,1227.00
2023-04-27T09:26:33.710Z,1232.00
2023-04-27T09:27:34.695Z,1223.00
2023-04-27T09:28:33.696Z,1230.00
2023-04-27T09:29:34.692Z,1243.00
2023-04-27T09:30:33.679Z,1241.00
2023-04-27T09:31:34.704Z,1228.00
2023-04-27T09:32:34.677Z,1232.00
2023-04-27T09:33:34.658Z,1234.00
2023-04-27T09:34:34.641Z,1240.00
2023-04-27T09:35:33.688Z,1248.00
2023-04-27T09:36:34.633Z,1256.00
2023-04-27T09:37:34.784Z,1256.00
2023-04-27T09:38:34.617Z,1255.00
2023-04-27T09:39:34.661Z,1261.00
2023-04-27T09:40:33.679Z,1258.00
2023-04-27T09:41:34.687Z,1279.00
2023-04-27T09:42:34.718Z,1270.00
2023-04-27T09:43:34.783Z,1298.00
2023-04-27T09:44:34.818Z,1327.00
2023-04-27T09:45:33.955Z,1319.00
2023-04-27T09:46:34.905Z,1276.00
2023-04-27T09:47:33.944Z,1251.00
2023-04-27T09:48:33.959Z,1237.00
2023-04-27T09:49:34.419Z,1270.00
2023-04-27T09:50:35.002Z,1290.00
2023-04-27T09:51:34.245Z,1270.00
2023-04-27T09:52:34.095Z,1274.00
2023-04-27T09:53:34.153Z,1262.00
2023-04-27T09:54:35.196Z,1272.00
2023-04-27T09:55:35.233Z,1246.00
2023-04-27T09:56:35.262Z,1259.00
2023-04-27T09:57:35.262Z,1257.00
2023-04-27T09:58:34.281Z,1247.00
2023-04-27T09:59:34.360Z,1237.00
2023-04-27T10:00:34.373Z,1230.00
2023-04-27T10:01:37.142Z,1218.00
2023-04-27T10:02:46.432Z,1219.00
2023-04-27T10:03:35.378Z,1221.00
2023-04-27T10:04:35.577Z,1223.00
2023-04-27T10:05:34.330Z,1224.00
2023-04-27T10:06:35.326Z,1216.00
2023-04-27T10:07:34.349Z,1200.00
2023-04-27T10:08:34.301Z,1192.00
2023-04-27T10:09:35.296Z,1171.00
2023-04-27T10:10:34.278Z,1191.00
2023-04-27T10:11:35.272Z,1196.00
2023-04-27T10:12:35.275Z,1222.00
2023-04-27T10:13:34.280Z,1194.00
2023-04-27T10:14:35.301Z,1188.00
2023-04-27T10:15:35.332Z,1188.00
2023-04-27T10:16:34.266Z,1208.00
2023-04-27T10:17:35.272Z,1197.00
2023-04-27T10:18:35.234Z,1180.00
2023-04-27T10:19:34.312Z,1187.00
2023-04-27T10:20:35.218Z,1187.00
2023-04-27T10:21:35.216Z,1186.00
2023-04-27T10:22:36.110Z,1159.00
2023-04-27T10:23:34.213Z,1158.00
2023-04-27T10:24:34.197Z,1140.00
2023-04-27T10:25:35.194Z,1148.00
2023-04-27T10:26:36.525Z,1151.00
2023-04-27T10:27:35.192Z,1150.00
2023-04-27T10:28:34.161Z,1152.00
2023-04-27T10:29:34.186Z,1147.00
2023-04-27T10:30:35.225Z,1152.00
2023-04-27T10:31:34.240Z,1151.00
2023-04-27T10:32:34.179Z,1134.00
2023-04-27T10:33:35.154Z,1120.00
2023-04-27T10:34:35.197Z,1138.00
2023-04-27T10:35:35.137Z,1147.00
2023-04-27T10:36:34.150Z,1133.00
2023-04-27T10:37:35.117Z,1133.00
2023-04-27T10:38:34.111Z,1135.00
2023-04-27T10:39:47.040Z,1124.00
2023-04-27T10:40:35.085Z,1126.00
2023-04-27T10:41:35.077Z,1131.00
2023-04-27T10:42:35.096Z,1133.00
2023-04-27T10:43:34.095Z,1124.00
2023-04-27T10:44:35.078Z,1114.00
2023-04-27T10:45:34.051Z,1133.00
2023-04-27T10:46:35.230Z,1130.00
2023-04-27T10:47:35.116Z,1117.00
2023-04-27T10:48:35.028Z,1130.00
2023-04-27T10:49:34.028Z,1103.00
2023-04-27T10:50:34.030Z,1085.00
2023-04-27T10:51:35.027Z,1104.00
2023-04-27T10:52:34.014Z,1108.00
2023-04-27T10:53:35.002Z,1111.00
2023-04-27T10:54:34.998Z,1084.00
2023-04-27T10:55:34.013Z,1110.00
2023-04-27T10:56:34.981Z,1099.00
2023-04-27T10:57:34.970Z,1106.00
2023-04-27T10:58:45.317Z,1082.00
2023-04-27T10:59:34.959Z,1084.00
2023-04-27T11:00:34.960Z,1085.00
2023-04-27T11:01:34.979Z,1095.00
2023-04-27T11:02:33.991Z,1101.00
2023-04-27T11:03:35.019Z,1115.00
2023-04-27T11:04:33.928Z,1129.00
2023-04-27T11:05:33.912Z,1123.00
2023-04-27T11:06:33.921Z,1107.00
2023-04-27T11:07:34.943Z,1111.00
2023-04-27T11:08:33.913Z,1117.00
2023-04-27T11:09:34.927Z,1110.00
2023-04-27T11:10:33.890Z,1089.00
2023-04-27T11:11:33.904Z,1111.00
2023-04-27T11:12:33.894Z,1097.00
2023-04-27T11:13:34.941Z,1091.00
2023-04-27T11:14:33.874Z,1105.00
2023-04-27T11:15:33.854Z,1082.00
2023-04-27T11:16:34.876Z,1084.00
2023-04-27T11:17:34.861Z,1067.00
2023-04-27T11:18:33.877Z,1095.00
2023-04-27T11:19:34.938Z,1081.00
2023-04-27T11:20:34.939Z,1085.00
2023-04-27T11:21:33.980Z,1097.00
2023-04-27T11:22:34.003Z,1082.00
2023-04-27T11:23:34.029Z,1083.00
2023-04-27T11:24:35.078Z,1102.00
2023-04-27T11:25:35.121Z,1107.00
2023-04-27T11:26:35.152Z,1306.00
2023-04-27T11:27:35.217Z,1351.00
2023-04-27T11:28:35.249Z,1299.00
2023-04-27T11:29:34.727Z,1322.00
2023-04-27T11:30:35.341Z,1309.00
2023-04-27T11:31:34.419Z,1212.00
2023-04-27T11:32:34.500Z,1266.00
2023-04-27T11:33:35.982Z,1242.00
2023-04-27T11:34:35.545Z,1244.00
2023-04-27T11:35:34.597Z,1233.00
2023-04-27T11:36:34.625Z,1213.00
2023-04-27T11:37:34.746Z,1203.00
2023-04-27T11:38:34.773Z,1208.00
2023-04-27T11:39:34.748Z,1189.00
2023-04-27T11:40:34.811Z,1216.00
2023-04-27T11:41:34.850Z,1209.00
2023-04-27T11:42:35.921Z,1220.00
2023-04-27T11:43:34.994Z,1209.00
2023-04-27T11:44:35.994Z,1198.00
2023-04-27T11:45:35.050Z,1206.00
2023-04-27T11:46:36.127Z,1200.00
2023-04-27T11:47:36.242Z,1181.00
2023-04-27T11:48:35.191Z,1174.00
2023-04-27T11:49:36.294Z,1183.00
2023-04-27T11:50:36.320Z,1174.00
2023-04-27T11:51:36.373Z,1158.00
2023-04-27T11:52:35.434Z,1170.00
2023-04-27T11:53:35.471Z,1168.00
2023-04-27T11:54:36.518Z,1158.00
2023-04-27T11:55:35.582Z,1150.00
2023-04-27T11:56:36.623Z,1158.00
2023-04-27T11:57:35.684Z,1175.00
2023-04-27T11:58:36.825Z,1172.00
2023-04-27T11:59:35.781Z,1171.00
2023-04-27T12:00:35.836Z,1169.00
2023-04-27T12:01:38.491Z,1180.00
2023-04-27T12:02:37.019Z,1172.00
2023-04-27T12:03:37.105Z,1182.00
2023-04-27T12:04:37.005Z,1171.00
2023-04-27T12:05:35.926Z,1156.00
2023-04-27T12:06:36.971Z,1159.00
2023-04-27T12:07:36.912Z,1160.00
2023-04-27T12:08:36.852Z,1150.00
2023-04-27T12:09:35.840Z,1163.00
2023-04-27T12:10:35.842Z,1164.00
2023-04-27T12:11:36.839Z,1134.00
2023-04-27T12:12:36.820Z,1147.00
2023-04-27T12:13:36.809Z,1143.00
2023-04-27T12:14:36.821Z,1143.00
2023-04-27T12:15:35.802Z,1136.00
2023-04-27T12:16:35.833Z,1135.00
2023-04-27T12:17:36.832Z,1136.00
2023-04-27T12:18:35.773Z,1138.00
2023-04-27T12:19:36.779Z,1132.00
2023-04-27T12:20:35.795Z,1129.00
2023-04-27T12:21:36.789Z,1126.00
2023-04-27T12:22:36.791Z,1126.00
2023-04-27T12:23:35.824Z,1117.00
2023-04-27T12:24:36.868Z,1129.00
2023-04-27T12:25:36.970Z,1133.00
2023-04-27T12:26:36.965Z,1136.00
2023-04-27T12:27:36.014Z,1127.00
2023-04-27T12:28:36.030Z,760.00
2023-04-27T12:29:37.075Z,588.00
2023-04-27T12:30:36.303Z,597.00
2023-04-27T12:31:37.259Z,551.00
2023-04-27T12:32:36.237Z,557.00
2023-04-27T12:33:37.206Z,489.00
2023-04-27T12:34:36.221Z,495.00
2023-04-27T12:35:37.615Z,476.00
2023-04-27T12:36:37.273Z,480.00
2023-04-27T12:37:37.317Z,500.00
2023-04-27T12:38:37.313Z,486.00
2023-04-27T12:39:36.351Z,503.00
2023-04-27T12:40:37.425Z,496.00
2023-04-27T12:41:37.458Z,515.00
2023-04-27T12:42:37.444Z,498.00
2023-04-27T12:43:36.466Z,483.00
2023-04-27T12:44:36.508Z,547.00
2023-04-27T12:45:37.587Z,534.00
2023-04-27T12:46:36.632Z,507.00
2023-04-27T12:47:54.427Z,522.00
2023-04-27T12:48:37.622Z,523.00
2023-04-27T12:49:37.582Z,540.00
2023-04-27T12:50:36.574Z,582.00
2023-04-27T12:51:36.576Z,652.00
2023-04-27T12:52:37.633Z,880.00
2023-04-27T12:53:36.561Z,944.00
2023-04-27T12:54:37.570Z,979.00
2023-04-27T12:55:37.562Z,1033.00
2023-04-27T12:56:37.534Z,1123.00
2023-04-27T12:57:36.530Z,1153.00
2023-04-27T12:58:37.528Z,1153.00
2023-04-27T12:59:37.521Z,1204.00
2023-04-27T13:00:36.507Z,1207.00
2023-04-27T13:01:37.628Z,1254.00
2023-04-27T13:02:37.637Z,1292.00
2023-04-27T13:03:36.719Z,1290.00
2023-04-27T13:04:36.679Z,1250.00
2023-04-27T13:05:36.466Z,1267.00
2023-04-27T13:06:36.485Z,1237.00
2023-04-27T13:07:37.469Z,1269.00
2023-04-27T13:08:37.463Z,1287.00
2023-04-27T13:09:37.449Z,1296.00
2023-04-27T13:10:36.455Z,1305.00
2023-04-27T13:11:37.449Z,1376.00
2023-04-27T13:12:37.436Z,1461.00
2023-04-27T13:13:36.445Z,1448.00
2023-04-27T13:14:37.412Z,1564.00
2023-04-27T13:15:37.450Z,1509.00
2023-04-27T13:16:36.495Z,1510.00
2023-04-27T13:17:36.469Z,1529.00
2023-04-27T13:18:37.411Z,1569.00
2023-04-27T13:19:37.385Z,1600.00
2023-04-27T13:20:36.369Z,1603.00
2023-04-27T13:21:36.362Z,1590.00
2023-04-27T13:22:37.357Z,1618.00
2023-04-27T13:23:37.352Z,1610.00
2023-04-27T13:24:37.328Z,1620.00
2023-04-27T13:25:36.395Z,1631.00
2023-04-27T13:26:37.322Z,1657.00
2023-04-27T13:27:37.327Z,1685.00
2023-04-27T13:28:36.314Z,1667.00
2023-04-27T13:29:36.302Z,1686.00
2023-04-27T13:30:37.291Z,1701.00
2023-04-27T13:31:37.332Z,1689.00
2023-04-27T13:32:36.313Z,1702.00
2023-04-27T13:33:36.327Z,1713.00
2023-04-27T13:34:37.356Z,1714.00
2023-04-27T13:35:36.347Z,1706.00
2023-04-27T13:36:36.366Z,1710.00
2023-04-27T13:37:36.390Z,1710.00
2023-04-27T13:38:36.408Z,1711.00
2023-04-27T13:39:37.438Z,1712.00
2023-04-27T13:40:37.462Z,1717.00
2023-04-27T13:41:36.496Z,1713.00
2023-04-27T13:42:36.492Z,1706.00
2023-04-27T13:43:37.519Z,1707.00
2023-04-27T13:44:37.514Z,1707.00
2023-04-27T13:45:36.572Z,1690.00
2023-04-27T13:46:36.607Z,1694.00
2023-04-27T13:47:36.613Z,1693.00
2023-04-27T13:48:37.600Z,1668.00
2023-04-27T13:49:37.613Z,1672.00
2023-04-27T13:50:36.685Z,1667.00
2023-04-27T13:51:37.666Z,1653.00
2023-04-27T13:52:36.680Z,1642.00
2023-04-27T13:53:36.704Z,1621.00
2023-04-27T13:54:37.724Z,1615.00
2023-04-27T13:55:37.796Z,1616.00
2023-04-27T13:56:37.794Z,1613.00
2023-04-27T13:57:36.819Z,1615.00
2023-04-27T13:58:36.843Z,1620.00
2023-04-27T13:59:36.876Z,1618.00
2023-04-27T14:00:36.917Z,1624.00
2023-04-27T14:01:37.928Z,1623.00
2023-04-27T14:02:36.975Z,1604.00
2023-04-27T14:03:37.056Z,1613.00
2023-04-27T14:04:38.028Z,1611.00
2023-04-27T14:05:37.010Z,1604.00
2023-04-27T14:06:37.229Z,1610.00
2023-04-27T14:07:38.105Z,1621.00
2023-04-27T14:08:37.087Z,1603.00
2023-04-27T14:09:37.106Z,1581.00
2023-04-27T14:10:38.107Z,1596.00
2023-04-27T14:11:52.330Z,1580.00
2023-04-27T14:12:38.124Z,1580.00
2023-04-27T14:13:37.118Z,1568.00
2023-04-27T14:14:37.103Z,1545.00
2023-04-27T14:15:38.085Z,1539.00
2023-04-27T14:16:38.127Z,1532.00
2023-04-27T14:17:38.103Z,1529.00
2023-04-27T14:18:37.107Z,1529.00
2023-04-27T14:19:37.082Z,1535.00
2023-04-27T14:20:38.075Z,1529.00
2023-04-27T14:21:37.064Z,1538.00
2023-04-27T14:22:37.076Z,1534.00
2023-04-27T14:23:38.048Z,1535.00
2023-04-27T14:24:38.036Z,1543.00
2023-04-27T14:25:37.019Z,1547.00
2023-04-27T14:26:37.027Z,1522.00
2023-04-27T14:27:37.018Z,1507.00
2023-04-27T14:28:37.029Z,1506.00
2023-04-27T14:29:37.010Z,1486.00
2023-04-27T14:30:37.983Z,1478.00
2023-04-27T14:31:38.099Z,1472.00
2023-04-27T14:32:37.039Z,1471.00
2023-04-27T14:33:37.985Z,1482.00
2023-04-27T14:34:37.991Z,1476.00
2023-04-27T14:35:37.953Z,1486.00
2023-04-27T14:36:37.954Z,1473.00
2023-04-27T14:37:36.948Z,1470.00
2023-04-27T14:38:36.992Z,1480.00
2023-04-27T14:39:36.943Z,1442.00
2023-04-27T14:40:37.934Z,1430.00
2023-04-27T14:41:36.916Z,1429.00
2023-04-27T14:42:36.924Z,1448.00
2023-04-27T14:43:37.915Z,1441.00
2023-04-27T14:44:36.917Z,1442.00
2023-04-27T14:45:48.037Z,1420.00
2023-04-27T14:46:37.983Z,1422.00
2023-04-27T14:47:36.904Z,1429.00
2023-04-27T14:48:37.890Z,1437.00
2023-04-27T14:49:37.864Z,1449.00
2023-04-27T14:50:37.860Z,1462.00
2023-04-27T14:51:37.870Z,1466.00
2023-04-27T14:52:36.852Z,1482.00
2023-04-27T14:53:37.851Z,1469.00
2023-04-27T14:54:36.864Z,1461.00
2023-04-27T14:55:37.827Z,1450.00
2023-04-27T14:56:37.834Z,1456.00
2023-04-27T14:57:37.816Z,1438.00
2023-04-27T14:58:37.810Z,1417.00
2023-04-27T14:59:37.821Z,1415.00
2023-04-27T15:00:36.797Z,1418.00
2023-04-27T15:01:36.820Z,1392.00
2023-04-27T15:02:37.879Z,1404.00
2023-04-27T15:03:36.914Z,1392.00
2023-04-27T15:04:37.827Z,1377.00
2023-04-27T15:05:36.780Z,1379.00
2023-04-27T15:06:36.785Z,1384.00
2023-04-27T15:07:37.760Z,1382.00
2023-04-27T15:08:36.747Z,1378.00
2023-04-27T15:09:36.730Z,1364.00
2023-04-27T15:10:37.761Z,1380.00
2023-04-27T15:11:36.721Z,1359.00
2023-04-27T15:12:37.717Z,1365.00
2023-04-27T15:13:36.711Z,1344.00
2023-04-27T15:14:37.742Z,1341.00
2023-04-27T15:15:36.733Z,1351.00
2023-04-27T15:16:36.765Z,1361.00
2023-04-27T15:17:36.706Z,1340.00
2023-04-27T15:18:36.673Z,1339.00
2023-04-27T15:19:36.662Z,1333.00
2023-04-27T15:20:36.654Z,1329.00
2023-04-27T15:21:37.665Z,1336.00
2023-04-27T15:22:37.638Z,1328.00
2023-04-27T15:23:37.642Z,1316.00
2023-04-27T15:24:37.640Z,1317.00
2023-04-27T15:25:37.628Z,1310.00
2023-04-27T15:26:37.634Z,1308.00
2023-04-27T15:27:37.602Z,1300.00
2023-04-27T15:28:37.615Z,1305.00
2023-04-27T15:29:37.614Z,1312.00
